Fort Dodge, Iowa
Current Conditions -  °F | °C
As of 1:55 PM on Monday 22 Dec 2014 (Local Time) from KFOD Reporting Station
Overcast Overcast  
Wind Chill: 29°   Ceiling: 600
Heat Index: 37°   Visibility: 5mi
Dew Point: 36°   Wind: 14mph
Humidity: 93%   Direction: 130°SE
Pressure: 29.48"   Gusts: 17mph
Location:  42.5°N, 94.18°W
Report Text: KFOD 221955Z AUTO 13012G15KT 5SM OVC006 03/02 A2948 RMK AO1
Loading
Personal Weather Stations






























Interactive Weather Map New forecast layout! Learn more

10-Day Weather Forecast

Advertisements
Track Severe Weather on mobile